Time;durP1;ratioP1;P1;durP2;ratioP2;P2;SDS_P1;SDS_P2;PMS_P1;PMS_P2;Temp;Humidity;BMP_temperature;BMP_pressure;BME280_temperature;BME280_humidity;BME280_pressure;Samples;Min_cycle;Max_cycle;Signal;HPM_P1;HPM_P2
2021/08/15 00:00:17;;;;;;;34.40;20.02;;;;;;;18.29;77.29;100813.66;2616358;31;20034;-58
2021/08/15 00:02:44;;;;;;;23.10;14.55;;;;;;;18.65;75.83;100808.31;2615737;36;20041;-58
2021/08/15 00:05:12;;;;;;;20.17;12.43;;;;;;;18.55;75.57;100808.34;2615776;36;20034;-55
2021/08/15 00:07:40;;;;;;;18.80;12.27;;;;;;;18.57;75.67;100811.78;2615957;31;20570;-58
2021/08/15 00:10:08;;;;;;;17.95;11.15;;;;;;;18.44;76.66;100811.84;2616694;31;20034;-56
2021/08/15 00:12:37;;;;;;;18.10;12.40;;;;;;;18.27;77.82;100806.78;2615806;36;20039;-57
2021/08/15 00:15:09;;;;;;;16.17;10.43;;;;;;;18.22;77.63;100818.88;2616269;36;20034;-56
2021/08/15 00:17:40;;;;;;;12.25;9.32;;;;;;;18.08;78.62;100815.47;2616911;31;20039;-58
2021/08/15 00:20:10;;;;;;;17.90;10.23;;;;;;;17.84;79.50;100812.09;2616666;31;20038;-58
2021/08/15 00:22:41;;;;;;;23.83;13.52;;;;;;;17.80;80.09;100820.72;2615661;36;20034;-59
2021/08/15 00:25:14;;;;;;;28.00;16.77;;;;;;;17.78;80.79;100825.03;2615797;31;20053;-55
2021/08/15 00:27:42;;;;;;;35.03;19.70;;;;;;;17.70;82.37;100821.56;2615589;31;20029;-57
2021/08/15 00:30:10;;;;;;;27.67;17.13;;;;;;;17.38;84.34;100813.81;2615570;36;20061;-57
2021/08/15 00:32:39;;;;;;;21.13;14.90;;;;;;;17.33;83.78;100818.13;2615566;36;20034;-58
2021/08/15 00:35:07;;;;;;;14.38;9.35;;;;;;;17.22;84.33;100833.66;2616054;31;20057;-59
2021/08/15 00:37:35;;;;;;;13.65;8.10;;;;;;;17.25;83.06;100831.09;2616910;31;20039;-58
2021/08/15 00:40:03;;;;;;;11.20;7.47;;;;;;;17.32;82.36;100825.03;2616208;36;20027;-58
2021/08/15 00:42:30;;;;;;;11.95;6.93;;;;;;;17.29;82.82;100835.41;2615631;36;20034;-58
2021/08/15 00:44:57;;;;;;;12.15;7.38;;;;;;;17.31;83.37;100826.75;2616627;31;20038;-59
2021/08/15 00:47:24;;;;;;;11.23;7.43;;;;;;;17.31;83.08;100826.75;2616861;31;20030;-57
2021/08/15 00:49:51;;;;;;;11.95;8.40;;;;;;;17.27;83.66;100830.22;2616880;31;20030;-56
2021/08/15 00:52:19;;;;;;;15.60;8.20;;;;;;;17.33;83.45;100837.09;2615529;36;20057;-58
2021/08/15 00:54:46;;;;;;;12.93;8.35;;;;;;;17.39;83.32;100831.09;2616277;31;20054;-58
2021/08/15 00:57:13;;;;;;;11.20;7.53;;;;;;;17.40;83.58;100831.09;2615677;31;20034;-58
2021/08/15 00:59:40;;;;;;;11.77;8.35;;;;;;;17.43;83.36;100825.91;2615884;31;20022;-57
2021/08/15 01:02:08;;;;;;;11.07;7.70;;;;;;;17.37;83.58;100828.47;2616058;36;20097;-58
2021/08/15 01:04:37;;;;;;;13.88;7.50;;;;;;;17.24;84.53;100831.94;2615571;31;20030;-58
2021/08/15 01:07:05;;;;;;;11.23;7.43;;;;;;;17.39;84.39;100828.50;2616109;31;20459;-56
2021/08/15 01:09:33;;;;;;;12.52;7.95;;;;;;;17.03;86.72;100830.19;2615379;36;20042;-59
2021/08/15 01:12:01;;;;;;;12.32;7.32;;;;;;;17.18;85.92;100831.94;2615695;31;20034;-57
2021/08/15 01:14:28;;;;;;;12.30;7.35;;;;;;;17.03;87.27;100825.88;2616362;31;20038;-56
2021/08/15 01:16:55;;;;;;;13.10;7.50;;;;;;;17.08;87.63;100823.31;2615481;36;20046;-56
2021/08/15 01:19:29;;;;;;;11.23;6.88;;;;;;;16.88;88.86;100822.41;2615886;31;20033;-58
2021/08/15 01:21:57;;;;;;;11.50;7.28;;;;;;;16.91;89.13;100825.84;2615521;36;20030;-58
2021/08/15 01:24:28;;;;;;;13.93;7.35;;;;;;;16.90;90.06;100825.88;2615760;31;20026;-56
2021/08/15 01:27:09;;;;;;;11.07;6.78;;;;;;;16.91;89.52;100830.16;2579051;36;2004401;-56
2021/08/15 01:29:36;;;;;;;12.13;7.03;;;;;;;17.35;87.10;100829.38;2615264;36;20031;-57
2021/08/15 01:32:04;;;;;;;13.80;7.20;;;;;;;16.79;90.55;100834.47;2615562;36;20046;-57
2021/08/15 01:34:31;;;;;;;11.90;6.43;;;;;;;17.21;88.23;100831.94;2615487;31;20041;-57
2021/08/15 01:36:58;;;;;;;10.13;6.78;;;;;;;16.69;91.08;100832.69;2616272;31;20880;-56
2021/08/15 01:39:25;;;;;;;11.13;7.00;;;;;;;16.96;90.08;100826.75;2615251;36;20038;-58
2021/08/15 01:41:52;;;;;;;14.35;6.50;;;;;;;16.69;91.24;100831.81;2616224;31;20030;-58
2021/08/15 01:44:19;;;;;;;10.00;6.45;;;;;;;16.70;91.74;100830.97;2616217;31;20023;-58
2021/08/15 01:46:46;;;;;;;12.55;7.38;;;;;;;16.54;92.77;100830.91;2615246;36;20031;-58
2021/08/15 01:49:14;;;;;;;18.85;9.00;;;;;;;16.38;94.63;100829.13;2614905;36;20026;-57
2021/08/15 01:51:41;;;;;;;16.13;9.05;;;;;;;16.59;94.15;100832.63;2615718;36;20458;-56
2021/08/15 01:54:08;;;;;;;16.80;8.90;;;;;;;16.28;95.85;100830.81;2615327;36;20034;-57
2021/08/15 01:56:35;;;;;;;16.95;10.30;;;;;;;16.29;95.96;100835.13;2615651;31;20077;-56
2021/08/15 01:59:02;;;;;;;16.55;10.18;;;;;;;16.86;93.24;100829.28;2616107;31;20030;-57
2021/08/15 02:01:29;;;;;;;23.77;12.70;;;;;;;16.79;93.13;100837.06;2615390;36;20062;-57
2021/08/15 02:03:57;;;;;;;21.95;11.32;;;;;;;16.86;91.98;100830.16;2615320;36;20033;-57
2021/08/15 02:06:24;;;;;;;20.35;10.68;;;;;;;16.46;94.79;100826.59;2616059;31;20038;-56
2021/08/15 02:08:51;;;;;;;17.35;10.98;;;;;;;16.17;96.55;100827.28;2615879;31;20042;-55
2021/08/15 02:11:19;;;;;;;17.02;10.30;;;;;;;15.94;98.49;100821.13;2617538;31;20038;-57
2021/08/15 02:13:47;;;;;;;17.55;10.77;;;;;;;15.85;99.76;100828.84;2616426;31;20566;-58
2021/08/15 02:16:14;;;;;;;15.77;9.65;;;;;;;16.37;97.76;100830.00;2615193;36;20566;-57
2021/08/15 02:18:42;;;;;;;15.63;9.55;;;;;;;16.50;96.01;100828.28;2616008;31;20045;-56
2021/08/15 02:21:09;;;;;;;17.63;9.18;;;;;;;16.65;95.33;100828.38;2615729;31;20566;-56
2021/08/15 02:23:36;;;;;;;10.25;7.40;;;;;;;16.61;95.22;100829.22;2616384;31;20038;-58
2021/08/15 02:26:04;;;;;;;14.02;7.90;;;;;;;16.50;95.47;100834.34;2615638;31;20042;-57
2021/08/15 02:28:31;;;;;;;10.95;7.22;;;;;;;16.62;95.02;100832.66;2615212;36;20558;-58
2021/08/15 02:30:58;;;;;;;11.93;8.20;;;;;;;16.23;96.88;100835.09;2616638;31;20038;-57
2021/08/15 02:33:25;;;;;;;11.25;7.78;;;;;;;16.27;96.80;100830.81;2615360;36;20037;-56
2021/08/15 02:35:53;;;;;;;14.77;8.73;;;;;;;16.06;98.29;100835.84;2615358;31;20042;-58
2021/08/15 02:38:22;;;;;;;20.08;9.35;;;;;;;16.14;98.43;100826.44;2615368;31;20042;-55
2021/08/15 02:40:49;;;;;;;17.75;10.63;;;;;;;15.87;99.29;100833.16;2614560;36;20061;-58
2021/08/15 02:43:18;;;;;;;19.60;9.32;;;;;;;15.57;100.00;100831.19;2614925;36;20034;-55
2021/08/15 02:45:45;;;;;;;14.90;8.98;;;;;;;15.39;100.00;100828.47;2614963;36;20031;-56
2021/08/15 02:48:12;;;;;;;18.42;8.57;;;;;;;15.39;100.00;100823.31;2614318;36;20030;-57
2021/08/15 02:50:40;;;;;;;14.52;9.38;;;;;;;15.29;100.00;100828.38;2616153;31;20447;-58
2021/08/15 02:53:07;;;;;;;14.95;8.75;;;;;;;15.19;100.00;100825.72;2616936;31;20058;-58
2021/08/15 02:55:34;;;;;;;14.85;9.27;;;;;;;15.24;100.00;100824.03;2616397;31;20033;-58
2021/08/15 02:58:01;;;;;;;14.18;8.48;;;;;;;15.43;100.00;100823.34;2615488;31;20035;-56
2021/08/15 03:00:28;;;;;;;14.57;9.13;;;;;;;15.32;100.00;100819.81;2615270;36;20026;-57
2021/08/15 03:02:55;;;;;;;14.68;8.60;;;;;;;15.16;100.00;100813.69;2615083;36;20030;-57
2021/08/15 03:05:23;;;;;;;16.67;9.05;;;;;;;15.54;100.00;100813.97;2614801;36;20041;-57
2021/08/15 03:07:50;;;;;;;14.48;9.40;;;;;;;15.86;100.00;100817.69;2616298;31;20030;-58
2021/08/15 03:10:18;;;;;;;21.15;10.27;;;;;;;15.86;100.00;100821.13;2616649;31;20034;-56
2021/08/15 03:12:45;;;;;;;14.00;8.82;;;;;;;15.57;100.00;100813.13;2616688;31;20589;-57
2021/08/15 03:15:13;;;;;;;11.48;7.25;;;;;;;15.91;100.00;100814.25;2615220;36;20035;-59
2021/08/15 03:17:40;;;;;;;14.63;6.97;;;;;;;15.52;100.00;100813.09;2614700;36;20123;-57
2021/08/15 03:20:08;;;;;;;11.65;6.88;;;;;;;15.62;100.00;100814.03;2615386;31;20041;-58
2021/08/15 03:22:35;;;;;;;12.45;6.43;;;;;;;15.34;100.00;100802.63;2614894;36;20065;-57
2021/08/15 03:25:03;;;;;;;11.77;6.75;;;;;;;15.33;100.00;100800.91;2614868;36;20030;-59
2021/08/15 03:27:30;;;;;;;12.57;6.38;;;;;;;15.56;100.00;100803.66;2616536;31;20447;-56
2021/08/15 03:29:57;;;;;;;12.52;6.22;;;;;;;15.88;100.00;100798.72;2616128;31;20042;-58
2021/08/15 03:32:25;;;;;;;15.73;6.45;;;;;;;15.42;100.00;100795.81;2615121;31;20053;-55
2021/08/15 03:34:52;;;;;;;10.90;7.28;;;;;;;15.14;100.00;100788.72;2615711;31;20030;-56
2021/08/15 03:37:19;;;;;;;11.60;6.68;;;;;;;15.03;100.00;100786.03;2615717;31;20109;-58
2021/08/15 03:39:46;;;;;;;15.95;7.18;;;;;;;15.15;100.00;100782.69;2614946;36;20853;-55
2021/08/15 03:42:13;;;;;;;15.07;6.88;;;;;;;14.98;100.00;100785.16;2615044;36;20026;-57
2021/08/15 03:44:40;;;;;;;10.38;7.13;;;;;;;15.48;100.00;100782.97;2615010;36;20046;-58
2021/08/15 03:47:07;;;;;;;12.88;7.22;;;;;;;15.84;100.00;100790.97;2614840;36;20042;-58
2021/08/15 03:49:34;;;;;;;12.75;7.65;;;;;;;15.79;100.00;100793.50;2614549;36;20031;-57
2021/08/15 03:52:02;;;;;;;12.98;6.78;;;;;;;15.35;100.00;100785.44;2615129;36;20037;-56
2021/08/15 03:54:30;;;;;;;17.50;7.68;;;;;;;15.42;100.00;100788.06;2614819;36;20039;-57
2021/08/15 03:56:57;;;;;;;11.20;7.38;;;;;;;15.21;100.00;100793.09;2615172;31;20057;-58
2021/08/15 03:59:24;;;;;;;8.77;6.88;;;;;;;15.08;100.00;100793.81;2615174;36;20031;-58
2021/08/15 04:01:51;;;;;;;10.77;6.38;;;;;;;15.14;100.00;100793.88;2615624;36;20073;-58
2021/08/15 04:04:18;;;;;;;9.73;6.32;;;;;;;15.42;100.00;100792.38;2615943;31;20023;-59
2021/08/15 04:06:45;;;;;;;13.77;6.13;;;;;;;15.33;100.00;100798.31;2616355;31;20450;-58
2021/08/15 04:09:13;;;;;;;13.07;6.60;;;;;;;15.32;100.00;100790.56;2615617;36;20554;-58
2021/08/15 04:11:40;;;;;;;15.05;6.80;;;;;;;15.21;100.00;100800.81;2615492;36;20038;-56
2021/08/15 04:14:07;;;;;;;10.63;5.97;;;;;;;15.00;100.00;100799.75;2615496;36;20026;-58
2021/08/15 04:16:35;;;;;;;11.48;7.47;;;;;;;14.56;100.00;100801.00;2615499;36;20031;-55
2021/08/15 04:19:02;;;;;;;14.10;6.65;;;;;;;14.37;100.00;100802.47;2615438;36;20039;-55
2021/08/15 04:21:30;;;;;;;12.90;7.15;;;;;;;14.33;100.00;100801.59;2615565;36;20046;-57
2021/08/15 04:23:57;;;;;;;12.80;7.78;;;;;;;14.28;100.00;100803.22;2615674;36;20030;-56
2021/08/15 04:26:24;;;;;;;8.43;6.60;;;;;;;14.63;100.00;100800.25;2616032;31;20404;-58
2021/08/15 04:28:53;;;;;;;10.65;7.07;;;;;;;14.62;100.00;100801.09;2615514;36;20066;-46
2021/08/15 04:31:20;;;;;;;11.48;7.07;;;;;;;14.93;100.00;100804.84;2614876;36;20034;-47
2021/08/15 04:33:47;;;;;;;10.02;6.82;;;;;;;15.04;100.00;100803.25;2615902;36;20419;-44
2021/08/15 04:36:14;;;;;;;9.45;6.75;;;;;;;14.88;100.00;100811.66;2615109;36;20033;-46
2021/08/15 04:38:42;;;;;;;15.93;7.07;;;;;;;15.02;100.00;100803.25;2615024;31;20038;-45
2021/08/15 04:41:09;;;;;;;12.35;6.68;;;;;;;15.08;100.00;100806.72;2614872;36;20026;-45
2021/08/15 04:43:36;;;;;;;11.35;7.57;;;;;;;14.94;100.00;100804.88;2615050;31;20030;-50
2021/08/15 04:46:03;;;;;;;11.32;7.07;;;;;;;14.89;100.00;100800.53;2614146;36;20061;-48
2021/08/15 04:48:31;;;;;;;11.40;7.28;;;;;;;14.89;100.00;100797.94;2614489;31;20069;-47
2021/08/15 04:50:58;;;;;;;10.73;7.10;;;;;;;15.01;100.00;100798.03;2615208;31;20399;-47
2021/08/15 04:53:27;;;;;;;10.60;6.90;;;;;;;15.62;100.00;100798.56;2614697;31;20609;-46
2021/08/15 04:55:55;;;;;;;11.98;7.63;;;;;;;15.44;100.00;100799.28;2614846;31;20034;-43
2021/08/15 04:58:22;;;;;;;16.55;7.70;;;;;;;15.26;100.00;100800.00;2614623;36;20582;-46
2021/08/15 05:00:49;;;;;;;12.45;7.63;;;;;;;15.38;100.00;100791.47;2615375;31;20038;-42
2021/08/15 05:03:17;;;;;;;11.13;7.10;;;;;;;15.41;100.00;100795.81;2614701;36;20034;-43
2021/08/15 05:05:45;;;;;;;11.38;6.50;;;;;;;15.63;100.00;100794.25;2615461;36;20463;-48
2021/08/15 05:08:13;;;;;;;11.35;6.82;;;;;;;15.39;100.00;100785.50;2614791;36;20911;-46
2021/08/15 05:10:43;;;;;;;10.52;7.13;;;;;;;15.50;100.00;100786.41;2614660;31;20039;-47
2021/08/15 05:13:11;;;;;;;12.60;7.20;;;;;;;15.48;100.00;100790.72;2614814;36;20061;-46
2021/08/15 05:15:40;;;;;;;10.05;6.65;;;;;;;15.74;100.00;100797.78;2615001;36;20040;-47
2021/08/15 05:18:07;;;;;;;18.17;7.00;;;;;;;15.94;100.00;100805.66;2614796;36;20042;-44
2021/08/15 05:20:35;;;;;;;12.13;6.85;;;;;;;16.04;100.00;100802.28;2614818;36;20030;-46
2021/08/15 05:23:03;;;;;;;17.80;7.93;;;;;;;16.01;100.00;100797.94;2615510;31;20536;-44
2021/08/15 05:25:30;;;;;;;22.80;9.82;;;;;;;15.89;100.00;100805.63;2614766;36;20030;-45
2021/08/15 05:27:57;;;;;;;11.25;7.72;;;;;;;16.06;100.00;100803.13;2615130;31;20042;-45
2021/08/15 05:30:25;;;;;;;16.65;7.57;;;;;;;16.15;100.00;100791.97;2614676;36;20581;-46
2021/08/15 05:32:52;;;;;;;18.35;8.98;;;;;;;16.32;100.00;100805.84;2614372;31;20059;-49
2021/08/15 05:35:19;;;;;;;12.07;7.43;;;;;;;16.69;100.00;100805.97;2614803;31;20034;-48
2021/08/15 05:37:46;;;;;;;10.27;7.30;;;;;;;17.01;100.00;100804.34;2614491;36;20549;-49
2021/08/15 05:40:14;;;;;;;13.20;7.28;;;;;;;17.29;96.87;100797.44;2614741;36;20903;-48
2021/08/15 05:42:41;;;;;;;13.02;6.82;;;;;;;17.37;96.28;100805.19;2615214;31;20041;-45
2021/08/15 05:45:09;;;;;;;10.77;7.05;;;;;;;17.36;96.74;100813.81;2614859;36;20451;-51
2021/08/15 05:47:37;;;;;;;12.02;7.10;;;;;;;17.52;94.59;100812.09;2614078;36;20038;-45
2021/08/15 05:50:05;;;;;;;9.25;6.53;;;;;;;17.41;96.56;100806.06;2614614;31;20053;-47
2021/08/15 05:52:34;;;;;;;10.70;6.68;;;;;;;17.61;97.54;100804.31;2615474;31;20118;-44
2021/08/15 05:55:03;;;;;;;12.05;6.45;;;;;;;17.84;96.20;100809.50;2615396;31;20030;-47
2021/08/15 05:57:30;;;;;;;13.40;7.05;;;;;;;17.54;96.53;100805.19;2614896;36;20234;-46
2021/08/15 05:59:58;;;;;;;9.35;6.38;;;;;;;17.94;96.29;100805.16;2614302;36;20054;-46
2021/08/15 06:02:26;;;;;;;11.68;6.15;;;;;;;18.09;95.89;100802.50;2615231;31;20038;-45
2021/08/15 06:04:54;;;;;;;11.63;6.70;;;;;;;17.97;94.46;100806.00;2614863;36;20434;-44
2021/08/15 06:07:21;;;;;;;10.50;6.40;;;;;;;17.89;96.49;100805.16;2614623;31;20046;-47
2021/08/15 06:09:48;;;;;;;9.40;6.60;;;;;;;17.77;95.90;100806.03;2614338;36;20031;-46
2021/08/15 06:12:16;;;;;;;10.13;6.68;;;;;;;17.88;95.05;100806.00;2614471;36;20061;-46
2021/08/15 06:14:44;;;;;;;10.30;6.30;;;;;;;18.25;94.86;100811.94;2614545;36;20690;-47
2021/08/15 06:17:12;;;;;;;8.43;6.13;;;;;;;18.41;94.33;100812.75;2616073;31;20546;-48
2021/08/15 06:19:40;;;;;;;10.75;6.40;;;;;;;18.58;93.17;100818.72;2615492;31;20034;-44
2021/08/15 06:22:13;;;;;;;12.70;5.80;;;;;;;18.99;90.37;100820.22;2616257;31;20030;-46
2021/08/15 06:24:43;;;;;;;12.02;5.95;;;;;;;18.95;87.82;100813.34;2614447;36;20030;-44
2021/08/15 06:27:11;;;;;;;7.40;5.40;;;;;;;19.48;87.50;100819.84;2614258;36;20558;-45
2021/08/15 06:29:41;;;;;;;12.73;5.82;;;;;;;19.41;87.50;100820.75;2616511;31;20034;-44
2021/08/15 06:32:10;;;;;;;11.30;5.55;;;;;;;19.28;87.53;100817.44;2614636;36;20057;-50
2021/08/15 06:34:37;;;;;;;13.02;6.10;;;;;;;19.51;86.20;100825.03;2614089;36;20562;-48
2021/08/15 06:37:06;;;;;;;11.95;4.90;;;;;;;19.95;80.05;100823.75;2613632;31;20039;-45
2021/08/15 06:39:33;;;;;;;10.32;5.30;;;;;;;19.78;81.14;100821.34;2614852;31;20585;-48
2021/08/15 06:42:00;;;;;;;9.57;5.43;;;;;;;20.21;79.19;100817.41;2613843;36;20057;-48
2021/08/15 06:44:27;;;;;;;9.88;4.90;;;;;;;20.34;79.26;100814.63;2613810;36;20035;-46
2021/08/15 06:46:54;;;;;;;9.90;4.97;;;;;;;20.32;78.56;100818.13;2614494;36;20486;-50
2021/08/15 06:49:21;;;;;;;12.40;5.18;;;;;;;20.76;75.45;100814.97;2613896;36;20061;-49
2021/08/15 06:51:48;;;;;;;8.88;4.28;;;;;;;20.96;74.81;100811.22;2614369;36;20037;-48
2021/08/15 06:54:15;;;;;;;11.07;5.00;;;;;;;20.70;78.72;100804.63;2614544;31;20026;-46
2021/08/15 06:56:44;;;;;;;8.10;4.90;;;;;;;20.88;79.75;100810.44;2614699;36;20035;-49
2021/08/15 06:59:13;;;;;;;13.00;5.22;;;;;;;21.01;75.59;100812.84;2613865;36;20061;-46
2021/08/15 07:01:42;;;;;;;12.43;4.75;;;;;;;21.09;76.94;100805.78;2614282;36;20065;-45
2021/08/15 07:04:09;;;;;;;6.70;3.83;;;;;;;21.34;75.11;100803.66;2613232;31;20589;-48
2021/08/15 07:06:36;;;;;;;9.35;4.30;;;;;;;21.30;73.05;100806.31;2612696;36;20053;-46
2021/08/15 07:09:04;;;;;;;8.02;4.47;;;;;;;21.65;73.54;100817.91;2612488;36;20031;-46
2021/08/15 07:11:31;;;;;;;12.38;4.68;;;;;;;21.77;71.70;100817.69;2612961;36;20035;-46
2021/08/15 07:13:58;;;;;;;9.57;4.35;;;;;;;21.73;71.75;100826.47;2613086;36;20042;-51
2021/08/15 07:16:25;;;;;;;9.63;4.95;;;;;;;21.76;71.63;100821.16;2613181;31;20063;-49
2021/08/15 07:18:56;;;;;;;10.23;4.50;;;;;;;21.37;73.26;100814.94;2613607;36;20022;-45
2021/08/15 07:21:23;;;;;;;9.63;4.60;;;;;;;21.48;73.15;100826.03;2615610;31;21071;-47
2021/08/15 07:23:51;;;;;;;12.05;5.10;;;;;;;21.30;73.49;100822.78;2616143;31;20030;-46
2021/08/15 07:26:18;;;;;;;10.35;4.88;;;;;;;21.23;76.02;100813.38;2613931;36;20031;-48
2021/08/15 07:28:45;;;;;;;10.35;4.97;;;;;;;21.54;76.33;100820.72;2613677;36;20065;-43
2021/08/15 07:31:12;;;;;;;10.18;4.55;;;;;;;21.37;76.81;100809.72;2614272;36;20058;-48
2021/08/15 07:33:39;;;;;;;12.85;4.53;;;;;;;21.70;75.37;100819.53;2614134;36;20034;-48
2021/08/15 07:36:10;;;;;;;13.38;4.85;;;;;;;21.51;73.64;100810.34;2614872;36;20041;-45
2021/08/15 07:38:37;;;;;;;14.15;4.72;;;;;;;21.71;73.25;100804.75;2614673;36;20065;-46
2021/08/15 07:41:04;;;;;;;14.95;4.75;;;;;;;21.73;73.66;100814.28;2614482;31;20038;-47
2021/08/15 07:43:32;;;;;;;12.23;4.95;;;;;;;22.07;73.94;100822.31;2614913;36;20030;-46
2021/08/15 07:45:59;;;;;;;10.43;4.85;;;;;;;21.79;72.41;100821.97;2614580;31;20030;-46
2021/08/15 07:48:27;;;;;;;12.40;5.25;;;;;;;21.79;73.63;100818.53;2612947;36;20079;-45
2021/08/15 07:50:54;;;;;;;11.95;4.38;;;;;;;21.68;72.84;100808.31;2613557;31;20069;-52
2021/08/15 07:53:24;;;;;;;11.52;4.75;;;;;;;21.45;74.53;100800.03;2614606;31;20089;-47
2021/08/15 07:55:53;;;;;;;16.90;5.28;;;;;;;21.47;75.29;100799.09;2615629;31;20046;-45
2021/08/15 07:58:21;;;;;;;14.02;5.88;;;;;;;22.02;72.18;100808.50;2614535;36;20030;-47
2021/08/15 08:00:50;;;;;;;13.68;5.00;;;;;;;21.88;70.99;100813.13;2615230;36;20423;-49
2021/08/15 08:03:18;;;;;;;14.75;5.28;;;;;;;22.11;71.55;100807.47;2614367;36;20056;-47
2021/08/15 08:05:46;;;;;;;9.82;4.85;;;;;;;22.08;68.87;100802.31;2614423;36;20060;-47
2021/08/15 08:08:14;;;;;;;9.65;4.82;;;;;;;21.86;69.98;100791.44;2614163;31;20042;-47
2021/08/15 08:10:44;;;;;;;11.80;5.07;;;;;;;22.20;66.93;100799.50;2615159;36;20514;-51
2021/08/15 08:13:13;;;;;;;7.97;4.10;;;;;;;22.20;67.76;100793.41;2614654;36;20128;-48
2021/08/15 08:15:40;;;;;;;9.75;4.57;;;;;;;22.44;67.64;100794.66;2614725;36;20073;-48
2021/08/15 08:18:08;;;;;;;10.85;4.93;;;;;;;22.49;66.97;100798.88;2615368;31;20038;-52
2021/08/15 08:20:37;;;;;;;9.55;4.57;;;;;;;22.75;66.50;100793.06;2615144;31;20621;-52
2021/08/15 08:23:08;;;;;;;11.88;4.57;;;;;;;22.72;66.67;100795.75;2615516;31;20066;-48
2021/08/15 08:25:37;;;;;;;8.93;4.30;;;;;;;22.81;68.13;100797.28;2615181;31;20038;-43
2021/08/15 08:28:05;;;;;;;8.38;4.15;;;;;;;22.45;65.80;100794.59;2614274;36;20492;-47
2021/08/15 08:30:32;;;;;;;7.60;4.63;;;;;;;22.75;65.29;100797.44;2615085;31;20034;-50
2021/08/15 08:33:00;;;;;;;8.23;4.10;;;;;;;23.42;63.37;100800.19;2614621;36;20114;-53
2021/08/15 08:35:27;;;;;;;9.38;4.47;;;;;;;23.45;62.37;100794.91;2615778;31;20046;-45
2021/08/15 08:37:55;;;;;;;10.93;4.57;;;;;;;23.16;63.45;100785.16;2615773;31;20038;-50
2021/08/15 08:40:23;;;;;;;12.23;4.60;;;;;;;23.61;63.56;100788.34;2614842;36;20057;-53
2021/08/15 08:42:51;;;;;;;9.27;4.72;;;;;;;23.99;60.89;100782.13;2615998;31;20031;-50
2021/08/15 08:45:21;;;;;;;7.68;4.05;;;;;;;24.45;59.96;100778.19;2614813;31;20581;-48
2021/08/15 08:47:50;;;;;;;10.35;4.22;;;;;;;25.07;57.74;100771.84;2614955;31;20041;-49
2021/08/15 08:50:21;;;;;;;7.80;4.10;;;;;;;25.33;54.12;100771.88;2614381;36;20038;-45
2021/08/15 08:52:49;;;;;;;6.90;3.53;;;;;;;25.70;55.13;100760.09;2614801;36;20041;-47
2021/08/15 08:55:17;;;;;;;8.07;4.00;;;;;;;24.77;56.17;100761.44;2614202;36;20034;-44
2021/08/15 08:57:46;;;;;;;9.45;4.03;;;;;;;24.54;56.09;100767.44;2613164;31;20190;-50
2021/08/15 09:00:15;;;;;;;7.90;4.18;;;;;;;24.03;55.60;100762.78;2613616;36;20093;-48
2021/08/15 09:02:42;;;;;;;6.80;3.65;;;;;;;24.21;55.53;100768.41;2614319;31;20038;-45
2021/08/15 09:05:10;;;;;;;10.90;4.20;;;;;;;24.05;55.07;100768.84;2614155;36;20050;-51
2021/08/15 09:07:39;;;;;;;8.10;4.05;;;;;;;24.07;56.62;100766.19;2614384;31;20038;-44
2021/08/15 09:10:12;;;;;;;8.40;4.10;;;;;;;24.22;55.60;100767.50;2614638;36;20033;-45
2021/08/15 09:12:45;;;;;;;7.72;3.65;;;;;;;24.72;54.78;100775.59;2614673;31;20030;-46
2021/08/15 09:15:14;;;;;;;7.75;3.83;;;;;;;24.18;54.83;100760.66;2614512;31;20026;-51
2021/08/15 09:17:43;;;;;;;8.10;3.63;;;;;;;24.48;53.25;100751.03;2615202;31;20046;-47
2021/08/15 09:20:13;;;;;;;8.18;3.72;;;;;;;24.12;51.69;100751.19;2614525;31;20562;-48
2021/08/15 09:22:40;;;;;;;7.45;3.75;;;;;;;24.21;53.29;100753.56;2614580;36;20031;-50
2021/08/15 09:25:19;;;;;;;6.78;3.53;;;;;;;24.78;48.57;100754.47;2614366;31;20457;-50
2021/08/15 09:27:51;;;;;;;8.75;3.60;;;;;;;24.93;48.54;100746.09;2613492;31;20038;-48
2021/08/15 09:30:32;;;;;;;6.05;3.80;;;;;;;25.20;49.17;100748.75;2612852;36;20031;-47
2021/08/15 09:33:09;;;;;;;10.25;3.95;;;;;;;26.03;47.84;100746.69;2614245;31;20057;-49
2021/08/15 09:35:36;;;;;;;5.20;3.45;;;;;;;26.08;47.16;100739.47;2577845;31;2004373;-46
2021/08/15 09:38:19;;;;;;;6.18;4.10;;;;;;;26.07;46.12;100746.50;2613615;31;20050;-51
2021/08/15 09:40:52;;;;;;;7.10;4.13;;;;;;;26.08;45.37;100753.47;2577220;36;2004456;-49
2021/08/15 09:43:26;;;;;;;9.95;4.50;;;;;;;25.74;46.27;100745.06;2613376;31;20038;-47
2021/08/15 09:46:00;;;;;;;9.07;4.13;;;;;;;26.42;45.22;100739.03;2613268;36;20053;-48
2021/08/15 09:48:37;;;;;;;10.47;4.23;;;;;;;26.61;45.42;100744.44;2612612;36;20039;-45
2021/08/15 09:51:04;;;;;;;8.38;4.43;;;;;;;27.00;43.94;100738.50;2613380;36;20295;-45
2021/08/15 09:53:43;;;;;;;8.45;4.82;;;;;;;26.51;45.50;100740.47;2614140;31;20174;-49
2021/08/15 09:56:12;;;;;;;8.20;4.20;;;;;;;27.35;45.43;100739.63;2577478;36;2004642;-47
2021/08/15 09:58:39;;;;;;;7.97;4.38;;;;;;;27.29;44.13;100719.72;2614410;31;20127;-45
2021/08/15 10:01:09;;;;;;;7.28;4.20;;;;;;;29.01;40.25;100723.13;2613973;36;20067;-49
2021/08/15 10:03:38;;;;;;;8.18;4.45;;;;;;;29.50;38.40;100723.25;2613878;36;20200;-45
2021/08/15 10:06:05;;;;;;;7.03;4.47;;;;;;;29.96;39.20;100718.19;2614709;31;20037;-45
2021/08/15 10:08:34;;;;;;;6.22;4.50;;;;;;;29.91;37.30;100725.50;2614351;36;20471;-45
2021/08/15 10:11:01;;;;;;;8.73;4.47;;;;;;;28.93;38.75;100710.31;2614952;31;20034;-50
2021/08/15 10:13:31;;;;;;;9.77;5.05;;;;;;;28.18;38.35;100699.91;2613704;36;21010;-50
2021/08/15 10:16:06;;;;;;;8.63;4.57;;;;;;;28.55;38.21;100708.72;2613954;36;20034;-49
2021/08/15 10:18:37;;;;;;;9.63;4.90;;;;;;;29.54;36.44;100703.69;2613856;36;20038;-50
2021/08/15 10:21:16;;;;;;;5.25;3.60;;;;;;;31.64;31.49;100708.41;2579631;31;2004444;-46
2021/08/15 10:23:44;;;;;;;8.43;4.05;;;;;;;30.68;33.48;100701.75;2615015;31;20046;-49
2021/08/15 10:26:27;;;;;;;6.28;4.47;;;;;;;31.71;31.32;100706.25;2614545;31;20031;-50
2021/08/15 10:28:55;;;;;;;8.55;4.50;;;;;;;32.56;29.84;100712.31;2613748;36;20026;-50
2021/08/15 10:31:22;;;;;;;7.40;4.78;;;;;;;33.99;28.76;100708.72;2615005;31;20034;-48
2021/08/15 10:33:54;;;;;;;7.75;4.68;;;;;;;34.29;27.81;100708.28;2614877;31;20033;-53
2021/08/15 10:36:33;;;;;;;7.72;5.00;;;;;;;32.07;30.91;100681.88;2613720;36;20073;-50
2021/08/15 10:39:02;;;;;;;7.20;4.63;;;;;;;33.61;29.02;100701.66;2615552;31;20039;-51
2021/08/15 10:41:58;;;;;;;8.23;4.75;;;;;;;32.51;30.38;100695.88;2613608;36;20030;-51
2021/08/15 10:44:25;;;;;;;8.38;4.68;;;;;;;33.58;30.53;100700.06;2577013;36;2004354;-54
2021/08/15 10:47:10;;;;;;;9.48;5.15;;;;;;;31.91;32.14;100687.31;2614667;31;20042;-49
2021/08/15 10:49:49;;;;;;;7.82;5.28;;;;;;;30.65;35.32;100691.38;2578016;31;2004566;-48
2021/08/15 10:52:34;;;;;;;8.63;4.70;;;;;;;31.77;32.77;100697.06;2612948;36;20034;-50
2021/08/15 10:55:05;;;;;;;7.93;4.93;;;;;;;31.81;31.86;100693.28;2613952;36;20030;-47
2021/08/15 10:57:33;;;;;;;8.52;5.07;;;;;;;31.54;31.92;100680.81;2613776;36;20030;-47
2021/08/15 11:00:00;;;;;;;7.57;4.97;;;;;;;32.50;30.90;100671.16;2613330;36;20075;-51
2021/08/15 11:02:34;;;;;;;10.82;5.82;;;;;;;32.05;31.62;100670.53;2613785;36;20042;-48
2021/08/15 11:05:04;;;;;;;7.78;4.88;;;;;;;32.66;31.17;100670.97;2614473;31;20582;-50
2021/08/15 11:07:39;;;;;;;8.73;5.18;;;;;;;33.51;31.13;100674.03;2613569;31;20038;-51
2021/08/15 11:10:08;;;;;;;9.55;4.93;;;;;;;33.33;30.05;100671.69;2577356;31;2004481;-49
2021/08/15 11:13:18;;;;;;;7.22;4.68;;;;;;;32.73;32.04;100671.44;2613565;36;20034;-47
2021/08/15 11:15:45;;;;;;;8.67;4.80;;;;;;;31.87;33.21;100659.31;2577509;36;2004317;-48
2021/08/15 11:18:15;;;;;;;9.48;5.25;;;;;;;32.04;31.59;100670.66;2613522;36;20298;-51
2021/08/15 11:20:51;;;;;;;10.10;5.40;;;;;;;31.73;32.08;100664.59;2613471;31;20022;-48
2021/08/15 11:23:20;;;;;;;7.93;5.80;;;;;;;32.29;32.20;100665.44;2613592;36;20034;-45